sensor_id;sensor_type;location;lat;lon;timestamp;P1;durP1;ratioP1;P2;durP2;ratioP2
55372;SDS011;41249;47.838;16.490;2023-04-08T00:01:29;16.50;;;8.77;;
55372;SDS011;41249;47.838;16.490;2023-04-08T00:03:56;17.27;;;9.05;;
55372;SDS011;41249;47.838;16.490;2023-04-08T00:06:23;11.43;;;7.88;;
55372;SDS011;41249;47.838;16.490;2023-04-08T00:08:49;12.68;;;8.80;;
55372;SDS011;41249;47.838;16.490;2023-04-08T00:11:16;11.98;;;8.52;;
55372;SDS011;41249;47.838;16.490;2023-04-08T00:13:43;13.13;;;9.15;;
55372;SDS011;41249;47.838;16.490;2023-04-08T00:16:09;16.50;;;9.73;;
55372;SDS011;41249;47.838;16.490;2023-04-08T00:18:36;9.93;;;7.28;;
55372;SDS011;41249;47.838;16.490;2023-04-08T00:21:03;10.73;;;7.05;;
55372;SDS011;41249;47.838;16.490;2023-04-08T00:23:30;9.57;;;6.68;;
55372;SDS011;41249;47.838;16.490;2023-04-08T00:25:56;12.40;;;8.60;;
55372;SDS011;41249;47.838;16.490;2023-04-08T00:28:23;12.00;;;7.93;;
55372;SDS011;41249;47.838;16.490;2023-04-08T00:30:49;31.98;;;23.65;;
55372;SDS011;41249;47.838;16.490;2023-04-08T00:33:18;16.95;;;10.23;;
55372;SDS011;41249;47.838;16.490;2023-04-08T00:35:44;15.23;;;11.25;;
55372;SDS011;41249;47.838;16.490;2023-04-08T00:38:11;17.50;;;12.20;;
55372;SDS011;41249;47.838;16.490;2023-04-08T00:40:38;18.08;;;12.30;;
55372;SDS011;41249;47.838;16.490;2023-04-08T00:43:04;17.98;;;11.52;;
55372;SDS011;41249;47.838;16.490;2023-04-08T00:45:32;15.38;;;11.50;;
55372;SDS011;41249;47.838;16.490;2023-04-08T00:48:00;13.15;;;10.32;;
55372;SDS011;41249;47.838;16.490;2023-04-08T00:50:28;12.85;;;9.40;;
55372;SDS011;41249;47.838;16.490;2023-04-08T00:52:54;13.88;;;9.55;;
55372;SDS011;41249;47.838;16.490;2023-04-08T00:55:21;14.68;;;9.65;;
55372;SDS011;41249;47.838;16.490;2023-04-08T00:57:47;18.17;;;12.02;;
55372;SDS011;41249;47.838;16.490;2023-04-08T01:00:14;11.65;;;8.48;;
55372;SDS011;41249;47.838;16.490;2023-04-08T01:05:19;16.55;;;10.07;;
55372;SDS011;41249;47.838;16.490;2023-04-08T01:07:55;10.45;;;6.95;;
55372;SDS011;41249;47.838;16.490;2023-04-08T01:10:26;12.07;;;8.90;;
55372;SDS011;41249;47.838;16.490;2023-04-08T01:12:59;13.18;;;8.73;;
55372;SDS011;41249;47.838;16.490;2023-04-08T01:15:31;10.48;;;6.68;;
55372;SDS011;41249;47.838;16.490;2023-04-08T01:18:00;14.18;;;9.65;;
55372;SDS011;41249;47.838;16.490;2023-04-08T01:20:32;13.77;;;9.20;;
55372;SDS011;41249;47.838;16.490;2023-04-08T01:25:29;12.63;;;9.70;;
55372;SDS011;41249;47.838;16.490;2023-04-08T01:27:58;10.65;;;8.32;;
55372;SDS011;41249;47.838;16.490;2023-04-08T01:30:27;8.95;;;5.78;;
55372;SDS011;41249;47.838;16.490;2023-04-08T01:32:55;12.75;;;7.88;;
55372;SDS011;41249;47.838;16.490;2023-04-08T01:35:24;12.30;;;7.88;;
55372;SDS011;41249;47.838;16.490;2023-04-08T01:37:51;10.98;;;7.45;;
55372;SDS011;41249;47.838;16.490;2023-04-08T01:40:20;12.02;;;8.07;;
55372;SDS011;41249;47.838;16.490;2023-04-08T01:42:47;13.63;;;9.65;;
55372;SDS011;41249;47.838;16.490;2023-04-08T01:45:17;9.10;;;6.68;;
55372;SDS011;41249;47.838;16.490;2023-04-08T01:47:44;12.88;;;9.52;;
55372;SDS011;41249;47.838;16.490;2023-04-08T01:50:13;12.02;;;7.68;;
55372;SDS011;41249;47.838;16.490;2023-04-08T01:52:45;11.07;;;7.57;;
55372;SDS011;41249;47.838;16.490;2023-04-08T01:55:14;8.15;;;6.38;;
55372;SDS011;41249;47.838;16.490;2023-04-08T01:57:43;11.05;;;7.55;;
55372;SDS011;41249;47.838;16.490;2023-04-08T02:00:13;6.95;;;5.38;;
55372;SDS011;41249;47.838;16.490;2023-04-08T02:02:43;11.73;;;7.68;;
55372;SDS011;41249;47.838;16.490;2023-04-08T02:05:12;8.70;;;6.28;;
55372;SDS011;41249;47.838;16.490;2023-04-08T02:07:39;11.13;;;8.05;;
55372;SDS011;41249;47.838;16.490;2023-04-08T02:10:06;8.63;;;6.80;;
55372;SDS011;41249;47.838;16.490;2023-04-08T02:12:33;10.15;;;7.22;;
55372;SDS011;41249;47.838;16.490;2023-04-08T02:15:00;7.63;;;5.57;;
55372;SDS011;41249;47.838;16.490;2023-04-08T02:17:35;8.77;;;5.25;;
55372;SDS011;41249;47.838;16.490;2023-04-08T02:20:06;8.75;;;6.50;;
55372;SDS011;41249;47.838;16.490;2023-04-08T02:22:40;8.95;;;7.18;;
55372;SDS011;41249;47.838;16.490;2023-04-08T02:25:24;8.18;;;6.78;;
55372;SDS011;41249;47.838;16.490;2023-04-08T02:27:51;9.93;;;5.78;;
55372;SDS011;41249;47.838;16.490;2023-04-08T02:30:19;7.78;;;6.53;;
55372;SDS011;41249;47.838;16.490;2023-04-08T02:32:47;7.70;;;5.28;;
55372;SDS011;41249;47.838;16.490;2023-04-08T02:35:15;8.20;;;6.75;;
55372;SDS011;41249;47.838;16.490;2023-04-08T02:37:44;9.32;;;6.60;;
55372;SDS011;41249;47.838;16.490;2023-04-08T02:42:48;8.13;;;6.32;;
55372;SDS011;41249;47.838;16.490;2023-04-08T02:45:15;8.73;;;5.72;;
55372;SDS011;41249;47.838;16.490;2023-04-08T02:47:42;8.13;;;6.07;;
55372;SDS011;41249;47.838;16.490;2023-04-08T02:50:09;6.93;;;4.50;;
55372;SDS011;41249;47.838;16.490;2023-04-08T02:52:36;10.45;;;7.05;;
55372;SDS011;41249;47.838;16.490;2023-04-08T02:55:02;9.73;;;6.25;;
55372;SDS011;41249;47.838;16.490;2023-04-08T02:57:31;10.00;;;7.43;;
55372;SDS011;41249;47.838;16.490;2023-04-08T02:59:58;8.05;;;6.05;;
55372;SDS011;41249;47.838;16.490;2023-04-08T03:02:24;8.98;;;5.93;;
55372;SDS011;41249;47.838;16.490;2023-04-08T03:04:51;8.13;;;5.32;;
55372;SDS011;41249;47.838;16.490;2023-04-08T03:07:18;7.88;;;6.40;;
55372;SDS011;41249;47.838;16.490;2023-04-08T03:09:44;7.57;;;5.53;;
55372;SDS011;41249;47.838;16.490;2023-04-08T03:12:11;8.68;;;5.60;;
55372;SDS011;41249;47.838;16.490;2023-04-08T03:14:38;8.30;;;4.72;;
55372;SDS011;41249;47.838;16.490;2023-04-08T03:17:04;8.57;;;6.32;;
55372;SDS011;41249;47.838;16.490;2023-04-08T03:19:31;8.55;;;5.47;;
55372;SDS011;41249;47.838;16.490;2023-04-08T03:21:57;5.80;;;4.80;;
55372;SDS011;41249;47.838;16.490;2023-04-08T03:24:24;6.85;;;4.82;;
55372;SDS011;41249;47.838;16.490;2023-04-08T03:26:50;5.32;;;4.75;;
55372;SDS011;41249;47.838;16.490;2023-04-08T03:29:17;7.30;;;5.25;;
55372;SDS011;41249;47.838;16.490;2023-04-08T03:31:44;7.22;;;6.25;;
55372;SDS011;41249;47.838;16.490;2023-04-08T03:34:11;9.40;;;6.47;;
55372;SDS011;41249;47.838;16.490;2023-04-08T03:36:37;8.15;;;6.57;;
55372;SDS011;41249;47.838;16.490;2023-04-08T03:39:04;8.27;;;6.68;;
55372;SDS011;41249;47.838;16.490;2023-04-08T03:41:31;5.80;;;3.75;;
55372;SDS011;41249;47.838;16.490;2023-04-08T03:43:57;3.65;;;3.22;;
55372;SDS011;41249;47.838;16.490;2023-04-08T03:46:24;5.05;;;3.17;;
55372;SDS011;41249;47.838;16.490;2023-04-08T03:48:51;6.85;;;4.25;;
55372;SDS011;41249;47.838;16.490;2023-04-08T03:51:17;5.57;;;3.20;;
55372;SDS011;41249;47.838;16.490;2023-04-08T03:53:44;4.03;;;2.90;;
55372;SDS011;41249;47.838;16.490;2023-04-08T03:56:11;4.10;;;3.40;;
55372;SDS011;41249;47.838;16.490;2023-04-08T03:58:37;3.58;;;2.35;;
55372;SDS011;41249;47.838;16.490;2023-04-08T04:01:04;3.17;;;2.45;;
55372;SDS011;41249;47.838;16.490;2023-04-08T04:03:31;3.22;;;2.30;;
55372;SDS011;41249;47.838;16.490;2023-04-08T04:05:57;2.75;;;1.92;;
55372;SDS011;41249;47.838;16.490;2023-04-08T04:08:24;2.83;;;1.98;;
55372;SDS011;41249;47.838;16.490;2023-04-08T04:10:51;3.97;;;2.35;;
55372;SDS011;41249;47.838;16.490;2023-04-08T04:13:17;3.53;;;2.42;;
55372;SDS011;41249;47.838;16.490;2023-04-08T04:15:44;3.03;;;2.55;;
55372;SDS011;41249;47.838;16.490;2023-04-08T04:18:11;2.75;;;2.40;;
55372;SDS011;41249;47.838;16.490;2023-04-08T04:20:41;3.63;;;2.25;;
55372;SDS011;41249;47.838;16.490;2023-04-08T04:23:08;3.17;;;2.55;;
55372;SDS011;41249;47.838;16.490;2023-04-08T04:25:35;2.88;;;1.90;;
55372;SDS011;41249;47.838;16.490;2023-04-08T04:28:02;3.25;;;2.42;;
55372;SDS011;41249;47.838;16.490;2023-04-08T04:30:28;1.63;;;1.17;;
55372;SDS011;41249;47.838;16.490;2023-04-08T04:32:55;2.55;;;1.95;;
55372;SDS011;41249;47.838;16.490;2023-04-08T04:35:22;1.10;;;1.00;;
55372;SDS011;41249;47.838;16.490;2023-04-08T04:37:49;2.65;;;1.55;;
55372;SDS011;41249;47.838;16.490;2023-04-08T04:40:17;1.95;;;1.55;;
55372;SDS011;41249;47.838;16.490;2023-04-08T04:42:43;2.38;;;1.50;;
55372;SDS011;41249;47.838;16.490;2023-04-08T04:45:10;1.85;;;1.30;;
55372;SDS011;41249;47.838;16.490;2023-04-08T04:47:37;1.50;;;1.13;;
55372;SDS011;41249;47.838;16.490;2023-04-08T04:50:04;1.38;;;1.27;;
55372;SDS011;41249;47.838;16.490;2023-04-08T04:52:31;1.45;;;1.00;;
55372;SDS011;41249;47.838;16.490;2023-04-08T04:54:58;1.15;;;0.90;;
55372;SDS011;41249;47.838;16.490;2023-04-08T04:57:24;1.52;;;1.20;;
55372;SDS011;41249;47.838;16.490;2023-04-08T04:59:51;1.13;;;1.02;;
55372;SDS011;41249;47.838;16.490;2023-04-08T05:02:18;1.30;;;1.10;;
55372;SDS011;41249;47.838;16.490;2023-04-08T05:04:45;1.38;;;1.00;;
55372;SDS011;41249;47.838;16.490;2023-04-08T05:07:11;1.60;;;1.20;;
55372;SDS011;41249;47.838;16.490;2023-04-08T05:09:38;1.35;;;1.20;;
55372;SDS011;41249;47.838;16.490;2023-04-08T05:12:04;1.95;;;1.30;;
55372;SDS011;41249;47.838;16.490;2023-04-08T05:14:31;1.40;;;1.10;;
55372;SDS011;41249;47.838;16.490;2023-04-08T05:16:58;1.25;;;0.90;;
55372;SDS011;41249;47.838;16.490;2023-04-08T05:19:25;1.23;;;0.93;;
55372;SDS011;41249;47.838;16.490;2023-04-08T05:21:51;1.70;;;1.20;;
55372;SDS011;41249;47.838;16.490;2023-04-08T05:24:18;2.20;;;1.58;;
55372;SDS011;41249;47.838;16.490;2023-04-08T05:26:44;2.05;;;1.30;;
55372;SDS011;41249;47.838;16.490;2023-04-08T05:29:12;1.25;;;1.00;;
55372;SDS011;41249;47.838;16.490;2023-04-08T05:31:39;2.25;;;1.65;;
55372;SDS011;41249;47.838;16.490;2023-04-08T05:34:06;9.65;;;5.15;;
55372;SDS011;41249;47.838;16.490;2023-04-08T05:36:32;5.30;;;3.10;;
55372;SDS011;41249;47.838;16.490;2023-04-08T05:38:59;3.20;;;2.38;;
55372;SDS011;41249;47.838;16.490;2023-04-08T05:41:27;4.45;;;2.40;;
55372;SDS011;41249;47.838;16.490;2023-04-08T05:43:54;1.80;;;1.33;;
55372;SDS011;41249;47.838;16.490;2023-04-08T05:46:21;1.55;;;1.00;;
55372;SDS011;41249;47.838;16.490;2023-04-08T05:48:47;2.05;;;1.30;;
55372;SDS011;41249;47.838;16.490;2023-04-08T05:51:14;1.60;;;1.13;;
55372;SDS011;41249;47.838;16.490;2023-04-08T05:53:45;1.42;;;1.00;;
55372;SDS011;41249;47.838;16.490;2023-04-08T05:56:12;1.25;;;1.00;;
55372;SDS011;41249;47.838;16.490;2023-04-08T05:58:39;1.10;;;0.95;;
55372;SDS011;41249;47.838;16.490;2023-04-08T06:01:05;1.05;;;0.75;;
55372;SDS011;41249;47.838;16.490;2023-04-08T06:03:32;1.00;;;0.90;;
55372;SDS011;41249;47.838;16.490;2023-04-08T06:05:59;2.08;;;1.30;;
55372;SDS011;41249;47.838;16.490;2023-04-08T06:08:25;1.80;;;1.40;;
55372;SDS011;41249;47.838;16.490;2023-04-08T06:10:52;1.70;;;0.90;;
55372;SDS011;41249;47.838;16.490;2023-04-08T06:13:19;0.85;;;0.70;;
55372;SDS011;41249;47.838;16.490;2023-04-08T06:15:47;1.30;;;1.00;;
55372;SDS011;41249;47.838;16.490;2023-04-08T06:18:16;1.75;;;1.20;;
55372;SDS011;41249;47.838;16.490;2023-04-08T06:20:43;0.82;;;0.70;;
55372;SDS011;41249;47.838;16.490;2023-04-08T06:23:10;0.70;;;0.70;;
55372;SDS011;41249;47.838;16.490;2023-04-08T06:25:36;1.00;;;0.80;;
55372;SDS011;41249;47.838;16.490;2023-04-08T06:28:03;0.75;;;0.70;;
55372;SDS011;41249;47.838;16.490;2023-04-08T06:30:29;0.82;;;0.70;;
55372;SDS011;41249;47.838;16.490;2023-04-08T06:32:56;0.50;;;0.50;;
55372;SDS011;41249;47.838;16.490;2023-04-08T06:35:23;0.77;;;0.77;;
55372;SDS011;41249;47.838;16.490;2023-04-08T06:37:50;0.98;;;0.70;;
55372;SDS011;41249;47.838;16.490;2023-04-08T06:40:16;1.00;;;0.80;;
55372;SDS011;41249;47.838;16.490;2023-04-08T06:42:43;0.63;;;0.60;;
55372;SDS011;41249;47.838;16.490;2023-04-08T06:45:09;0.50;;;0.50;;
55372;SDS011;41249;47.838;16.490;2023-04-08T06:47:36;0.68;;;0.50;;
55372;SDS011;41249;47.838;16.490;2023-04-08T06:50:03;1.27;;;0.70;;
55372;SDS011;41249;47.838;16.490;2023-04-08T06:52:30;0.90;;;0.88;;
55372;SDS011;41249;47.838;16.490;2023-04-08T06:54:56;2.65;;;1.02;;
55372;SDS011;41249;47.838;16.490;2023-04-08T06:57:23;2.55;;;1.25;;
55372;SDS011;41249;47.838;16.490;2023-04-08T06:59:49;2.13;;;1.25;;
55372;SDS011;41249;47.838;16.490;2023-04-08T07:02:16;4.40;;;1.10;;
55372;SDS011;41249;47.838;16.490;2023-04-08T07:04:42;1.65;;;1.00;;
55372;SDS011;41249;47.838;16.490;2023-04-08T07:07:12;0.82;;;0.70;;
55372;SDS011;41249;47.838;16.490;2023-04-08T07:09:38;1.80;;;1.10;;
55372;SDS011;41249;47.838;16.490;2023-04-08T07:12:06;2.20;;;1.25;;
55372;SDS011;41249;47.838;16.490;2023-04-08T07:14:33;1.25;;;0.80;;
55372;SDS011;41249;47.838;16.490;2023-04-08T07:16:59;1.73;;;0.88;;
55372;SDS011;41249;47.838;16.490;2023-04-08T07:19:26;1.65;;;1.10;;
55372;SDS011;41249;47.838;16.490;2023-04-08T07:21:53;3.00;;;1.40;;
55372;SDS011;41249;47.838;16.490;2023-04-08T07:24:20;1.90;;;1.15;;
55372;SDS011;41249;47.838;16.490;2023-04-08T07:26:46;2.08;;;1.40;;
55372;SDS011;41249;47.838;16.490;2023-04-08T07:29:13;1.80;;;1.23;;
55372;SDS011;41249;47.838;16.490;2023-04-08T07:31:39;1.10;;;0.90;;
55372;SDS011;41249;47.838;16.490;2023-04-08T07:34:07;1.27;;;0.95;;
55372;SDS011;41249;47.838;16.490;2023-04-08T07:36:34;2.00;;;1.45;;
55372;SDS011;41249;47.838;16.490;2023-04-08T07:39:01;1.85;;;1.20;;
55372;SDS011;41249;47.838;16.490;2023-04-08T07:41:28;1.55;;;1.13;;
55372;SDS011;41249;47.838;16.490;2023-04-08T07:43:55;0.93;;;0.70;;
55372;SDS011;41249;47.838;16.490;2023-04-08T07:46:21;1.42;;;1.08;;
55372;SDS011;41249;47.838;16.490;2023-04-08T07:48:49;1.92;;;1.30;;
55372;SDS011;41249;47.838;16.490;2023-04-08T07:51:16;1.50;;;1.25;;
55372;SDS011;41249;47.838;16.490;2023-04-08T07:53:46;1.42;;;1.08;;
55372;SDS011;41249;47.838;16.490;2023-04-08T07:56:13;1.20;;;1.00;;
55372;SDS011;41249;47.838;16.490;2023-04-08T07:58:41;2.30;;;1.27;;
55372;SDS011;41249;47.838;16.490;2023-04-08T08:01:15;3.55;;;1.90;;
55372;SDS011;41249;47.838;16.490;2023-04-08T08:03:43;1.58;;;1.10;;
55372;SDS011;41249;47.838;16.490;2023-04-08T08:06:13;1.27;;;1.00;;
55372;SDS011;41249;47.838;16.490;2023-04-08T08:08:40;1.88;;;1.45;;
55372;SDS011;41249;47.838;16.490;2023-04-08T08:11:07;1.77;;;1.25;;
55372;SDS011;41249;47.838;16.490;2023-04-08T08:13:33;1.38;;;1.15;;
55372;SDS011;41249;47.838;16.490;2023-04-08T08:16:00;0.80;;;0.80;;
55372;SDS011;41249;47.838;16.490;2023-04-08T08:18:27;0.80;;;0.80;;
55372;SDS011;41249;47.838;16.490;2023-04-08T08:20:53;1.10;;;1.00;;
55372;SDS011;41249;47.838;16.490;2023-04-08T08:23:20;1.30;;;1.17;;
55372;SDS011;41249;47.838;16.490;2023-04-08T08:25:47;1.67;;;1.35;;
55372;SDS011;41249;47.838;16.490;2023-04-08T08:28:13;0.82;;;0.77;;
55372;SDS011;41249;47.838;16.490;2023-04-08T08:30:40;1.60;;;1.30;;
55372;SDS011;41249;47.838;16.490;2023-04-08T08:33:06;1.27;;;1.00;;
55372;SDS011;41249;47.838;16.490;2023-04-08T08:35:33;1.52;;;1.33;;
55372;SDS011;41249;47.838;16.490;2023-04-08T08:37:59;1.67;;;1.17;;
55372;SDS011;41249;47.838;16.490;2023-04-08T08:40:26;1.23;;;1.00;;
55372;SDS011;41249;47.838;16.490;2023-04-08T08:42:53;1.65;;;1.20;;
55372;SDS011;41249;47.838;16.490;2023-04-08T08:45:20;1.63;;;1.15;;
55372;SDS011;41249;47.838;16.490;2023-04-08T08:47:46;4.68;;;2.80;;
55372;SDS011;41249;47.838;16.490;2023-04-08T08:50:16;2.55;;;1.95;;
55372;SDS011;41249;47.838;16.490;2023-04-08T08:52:47;2.00;;;1.40;;
55372;SDS011;41249;47.838;16.490;2023-04-08T08:55:18;2.15;;;1.50;;
55372;SDS011;41249;47.838;16.490;2023-04-08T08:58:05;1.60;;;1.40;;
55372;SDS011;41249;47.838;16.490;2023-04-08T09:00:36;1.48;;;1.30;;
55372;SDS011;41249;47.838;16.490;2023-04-08T09:03:13;1.90;;;1.40;;
55372;SDS011;41249;47.838;16.490;2023-04-08T09:10:51;2.35;;;1.80;;
55372;SDS011;41249;47.838;16.490;2023-04-08T09:13:20;2.25;;;1.85;;
55372;SDS011;41249;47.838;16.490;2023-04-08T09:16:06;2.03;;;1.70;;
55372;SDS011;41249;47.838;16.490;2023-04-08T09:18:36;1.77;;;1.45;;
55372;SDS011;41249;47.838;16.490;2023-04-08T09:21:04;2.58;;;1.65;;
55372;SDS011;41249;47.838;16.490;2023-04-08T09:23:41;2.03;;;1.40;;
55372;SDS011;41249;47.838;16.490;2023-04-08T09:26:19;1.92;;;1.05;;
55372;SDS011;41249;47.838;16.490;2023-04-08T09:28:57;3.17;;;2.08;;
55372;SDS011;41249;47.838;16.490;2023-04-08T09:31:34;2.90;;;1.83;;
55372;SDS011;41249;47.838;16.490;2023-04-08T09:34:13;2.10;;;1.60;;
55372;SDS011;41249;47.838;16.490;2023-04-08T09:36:42;2.00;;;1.20;;
55372;SDS011;41249;47.838;16.490;2023-04-08T09:39:11;5.00;;;1.88;;
55372;SDS011;41249;47.838;16.490;2023-04-08T09:41:38;2.30;;;1.40;;
55372;SDS011;41249;47.838;16.490;2023-04-08T09:44:06;2.88;;;2.03;;
55372;SDS011;41249;47.838;16.490;2023-04-08T09:46:58;2.78;;;2.00;;
55372;SDS011;41249;47.838;16.490;2023-04-08T09:49:26;1.45;;;1.23;;
55372;SDS011;41249;47.838;16.490;2023-04-08T09:52:19;2.72;;;1.80;;
55372;SDS011;41249;47.838;16.490;2023-04-08T09:58:03;2.30;;;1.60;;
55372;SDS011;41249;47.838;16.490;2023-04-08T10:00:22;5.93;;;3.40;;
55372;SDS011;41249;47.838;16.490;2023-04-08T10:05:50;3.08;;;1.55;;
55372;SDS011;41249;47.838;16.490;2023-04-08T10:08:18;3.63;;;2.33;;
55372;SDS011;41249;47.838;16.490;2023-04-08T10:10:45;2.30;;;1.63;;
55372;SDS011;41249;47.838;16.490;2023-04-08T10:13:13;3.03;;;1.70;;
55372;SDS011;41249;47.838;16.490;2023-04-08T10:15:40;1.88;;;1.17;;
55372;SDS011;41249;47.838;16.490;2023-04-08T10:23:08;3.88;;;2.47;;
55372;SDS011;41249;47.838;16.490;2023-04-08T10:25:37;4.22;;;2.45;;
55372;SDS011;41249;47.838;16.490;2023-04-08T10:30:42;3.40;;;2.60;;
55372;SDS011;41249;47.838;16.490;2023-04-08T10:33:10;4.72;;;2.85;;
55372;SDS011;41249;47.838;16.490;2023-04-08T10:35:47;5.43;;;3.60;;
55372;SDS011;41249;47.838;16.490;2023-04-08T10:38:15;3.05;;;2.03;;
55372;SDS011;41249;47.838;16.490;2023-04-08T10:40:43;1.92;;;1.48;;
55372;SDS011;41249;47.838;16.490;2023-04-08T10:43:10;1.65;;;1.05;;
55372;SDS011;41249;47.838;16.490;2023-04-08T10:45:39;2.33;;;1.20;;
55372;SDS011;41249;47.838;16.490;2023-04-08T10:48:13;2.50;;;1.60;;
55372;SDS011;41249;47.838;16.490;2023-04-08T10:53:36;2.38;;;1.55;;
55372;SDS011;41249;47.838;16.490;2023-04-08T10:58:50;4.10;;;2.97;;
55372;SDS011;41249;47.838;16.490;2023-04-08T11:01:19;3.28;;;2.30;;
55372;SDS011;41249;47.838;16.490;2023-04-08T11:03:46;4.32;;;2.70;;
55372;SDS011;41249;47.838;16.490;2023-04-08T11:06:14;2.20;;;1.50;;
55372;SDS011;41249;47.838;16.490;2023-04-08T11:08:41;2.17;;;1.70;;
55372;SDS011;41249;47.838;16.490;2023-04-08T11:11:09;4.20;;;2.67;;
55372;SDS011;41249;47.838;16.490;2023-04-08T11:13:40;4.55;;;2.80;;
55372;SDS011;41249;47.838;16.490;2023-04-08T11:16:18;4.90;;;3.58;;
55372;SDS011;41249;47.838;16.490;2023-04-08T11:18:46;10.88;;;4.88;;
55372;SDS011;41249;47.838;16.490;2023-04-08T11:21:14;18.15;;;9.88;;
55372;SDS011;41249;47.838;16.490;2023-04-08T11:23:42;8.70;;;4.88;;
55372;SDS011;41249;47.838;16.490;2023-04-08T11:26:09;5.90;;;3.35;;
55372;SDS011;41249;47.838;16.490;2023-04-08T11:28:36;5.32;;;3.13;;
55372;SDS011;41249;47.838;16.490;2023-04-08T11:31:03;4.20;;;3.00;;
55372;SDS011;41249;47.838;16.490;2023-04-08T11:33:31;4.22;;;3.05;;
55372;SDS011;41249;47.838;16.490;2023-04-08T11:35:59;4.68;;;3.28;;
55372;SDS011;41249;47.838;16.490;2023-04-08T11:38:29;5.03;;;2.85;;
55372;SDS011;41249;47.838;16.490;2023-04-08T11:40:57;6.00;;;3.85;;
55372;SDS011;41249;47.838;16.490;2023-04-08T11:43:24;2.63;;;2.28;;
55372;SDS011;41249;47.838;16.490;2023-04-08T11:45:51;3.88;;;2.60;;
55372;SDS011;41249;47.838;16.490;2023-04-08T11:48:18;5.35;;;3.40;;
55372;SDS011;41249;47.838;16.490;2023-04-08T11:50:45;3.90;;;2.78;;
55372;SDS011;41249;47.838;16.490;2023-04-08T11:53:18;6.05;;;3.88;;
55372;SDS011;41249;47.838;16.490;2023-04-08T11:55:51;6.20;;;4.45;;
55372;SDS011;41249;47.838;16.490;2023-04-08T11:58:17;6.57;;;4.25;;
55372;SDS011;41249;47.838;16.490;2023-04-08T12:00:44;6.50;;;4.15;;
55372;SDS011;41249;47.838;16.490;2023-04-08T12:03:11;3.30;;;2.42;;
55372;SDS011;41249;47.838;16.490;2023-04-08T12:05:39;3.55;;;1.75;;
55372;SDS011;41249;47.838;16.490;2023-04-08T12:08:06;4.35;;;2.33;;
55372;SDS011;41249;47.838;16.490;2023-04-08T12:10:32;5.43;;;3.45;;
55372;SDS011;41249;47.838;16.490;2023-04-08T12:12:59;4.15;;;2.63;;
55372;SDS011;41249;47.838;16.490;2023-04-08T12:15:25;5.07;;;3.78;;
55372;SDS011;41249;47.838;16.490;2023-04-08T12:17:52;5.47;;;3.22;;
55372;SDS011;41249;47.838;16.490;2023-04-08T12:20:19;4.63;;;2.90;;
55372;SDS011;41249;47.838;16.490;2023-04-08T12:22:45;6.30;;;4.15;;
55372;SDS011;41249;47.838;16.490;2023-04-08T12:25:12;4.45;;;2.65;;
55372;SDS011;41249;47.838;16.490;2023-04-08T12:27:38;3.72;;;2.28;;
55372;SDS011;41249;47.838;16.490;2023-04-08T12:30:05;3.47;;;2.30;;
55372;SDS011;41249;47.838;16.490;2023-04-08T12:32:33;4.72;;;3.15;;
55372;SDS011;41249;47.838;16.490;2023-04-08T12:34:59;5.95;;;2.90;;
55372;SDS011;41249;47.838;16.490;2023-04-08T12:37:26;7.25;;;3.83;;
55372;SDS011;41249;47.838;16.490;2023-04-08T12:39:53;4.60;;;2.75;;
55372;SDS011;41249;47.838;16.490;2023-04-08T12:42:19;4.18;;;2.40;;
55372;SDS011;41249;47.838;16.490;2023-04-08T12:44:46;5.10;;;2.78;;
55372;SDS011;41249;47.838;16.490;2023-04-08T12:47:12;3.65;;;2.78;;
55372;SDS011;41249;47.838;16.490;2023-04-08T12:49:39;4.90;;;2.63;;
55372;SDS011;41249;47.838;16.490;2023-04-08T12:52:09;4.00;;;2.83;;
55372;SDS011;41249;47.838;16.490;2023-04-08T12:54:35;3.65;;;2.53;;
55372;SDS011;41249;47.838;16.490;2023-04-08T12:57:02;3.95;;;2.47;;
55372;SDS011;41249;47.838;16.490;2023-04-08T12:59:29;2.83;;;2.20;;
55372;SDS011;41249;47.838;16.490;2023-04-08T13:01:57;3.25;;;2.20;;
55372;SDS011;41249;47.838;16.490;2023-04-08T13:04:24;2.88;;;2.28;;
55372;SDS011;41249;47.838;16.490;2023-04-08T13:06:50;3.63;;;2.67;;
55372;SDS011;41249;47.838;16.490;2023-04-08T13:09:17;3.20;;;2.10;;
55372;SDS011;41249;47.838;16.490;2023-04-08T13:11:43;4.15;;;3.03;;
55372;SDS011;41249;47.838;16.490;2023-04-08T13:14:11;3.75;;;2.90;;
55372;SDS011;41249;47.838;16.490;2023-04-08T13:16:38;3.20;;;2.22;;
55372;SDS011;41249;47.838;16.490;2023-04-08T13:19:05;3.53;;;2.75;;
55372;SDS011;41249;47.838;16.490;2023-04-08T13:21:32;2.40;;;1.98;;
55372;SDS011;41249;47.838;16.490;2023-04-08T13:23:58;2.80;;;2.25;;
55372;SDS011;41249;47.838;16.490;2023-04-08T13:26:25;3.42;;;2.25;;
55372;SDS011;41249;47.838;16.490;2023-04-08T13:28:51;2.78;;;2.38;;
55372;SDS011;41249;47.838;16.490;2023-04-08T13:31:23;3.42;;;2.92;;
55372;SDS011;41249;47.838;16.490;2023-04-08T13:33:49;3.20;;;2.65;;
55372;SDS011;41249;47.838;16.490;2023-04-08T13:36:16;3.55;;;2.40;;
55372;SDS011;41249;47.838;16.490;2023-04-08T13:38:43;2.13;;;1.92;;
55372;SDS011;41249;47.838;16.490;2023-04-08T13:41:11;2.67;;;2.15;;
55372;SDS011;41249;47.838;16.490;2023-04-08T13:43:37;3.33;;;2.85;;
55372;SDS011;41249;47.838;16.490;2023-04-08T13:46:04;3.10;;;2.70;;
55372;SDS011;41249;47.838;16.490;2023-04-08T13:48:31;2.88;;;2.30;;
55372;SDS011;41249;47.838;16.490;2023-04-08T13:50:57;3.28;;;2.53;;
55372;SDS011;41249;47.838;16.490;2023-04-08T13:53:24;3.45;;;2.35;;
55372;SDS011;41249;47.838;16.490;2023-04-08T13:55:51;2.97;;;2.30;;
55372;SDS011;41249;47.838;16.490;2023-04-08T13:58:20;3.20;;;2.75;;
55372;SDS011;41249;47.838;16.490;2023-04-08T14:00:49;3.60;;;2.90;;
55372;SDS011;41249;47.838;16.490;2023-04-08T14:03:17;3.80;;;2.80;;
55372;SDS011;41249;47.838;16.490;2023-04-08T14:05:44;4.55;;;3.65;;
55372;SDS011;41249;47.838;16.490;2023-04-08T14:08:11;3.58;;;3.00;;
55372;SDS011;41249;47.838;16.490;2023-04-08T14:10:39;4.45;;;3.42;;
55372;SDS011;41249;47.838;16.490;2023-04-08T14:13:07;5.18;;;3.60;;
55372;SDS011;41249;47.838;16.490;2023-04-08T14:15:34;4.07;;;3.60;;
55372;SDS011;41249;47.838;16.490;2023-04-08T14:18:00;5.15;;;2.63;;
55372;SDS011;41249;47.838;16.490;2023-04-08T14:20:27;5.18;;;4.10;;
55372;SDS011;41249;47.838;16.490;2023-04-08T14:22:55;5.93;;;3.60;;
55372;SDS011;41249;47.838;16.490;2023-04-08T14:25:22;5.57;;;4.30;;
55372;SDS011;41249;47.838;16.490;2023-04-08T14:27:49;6.15;;;4.13;;
55372;SDS011;41249;47.838;16.490;2023-04-08T14:30:24;3.40;;;2.70;;
55372;SDS011;41249;47.838;16.490;2023-04-08T14:32:52;5.10;;;3.75;;
55372;SDS011;41249;47.838;16.490;2023-04-08T14:35:19;4.72;;;3.65;;
55372;SDS011;41249;47.838;16.490;2023-04-08T14:37:46;4.75;;;3.03;;
55372;SDS011;41249;47.838;16.490;2023-04-08T14:40:13;3.58;;;2.42;;
55372;SDS011;41249;47.838;16.490;2023-04-08T14:42:40;4.88;;;3.75;;
55372;SDS011;41249;47.838;16.490;2023-04-08T14:45:07;6.85;;;3.97;;
55372;SDS011;41249;47.838;16.490;2023-04-08T14:47:34;4.78;;;3.60;;
55372;SDS011;41249;47.838;16.490;2023-04-08T14:50:00;5.53;;;4.70;;
55372;SDS011;41249;47.838;16.490;2023-04-08T14:52:27;7.18;;;4.25;;
55372;SDS011;41249;47.838;16.490;2023-04-08T14:54:54;4.65;;;3.42;;
55372;SDS011;41249;47.838;16.490;2023-04-08T14:57:20;4.15;;;3.15;;
55372;SDS011;41249;47.838;16.490;2023-04-08T14:59:47;4.60;;;3.58;;
55372;SDS011;41249;47.838;16.490;2023-04-08T15:02:13;4.47;;;2.88;;
55372;SDS011;41249;47.838;16.490;2023-04-08T15:04:40;3.22;;;2.45;;
55372;SDS011;41249;47.838;16.490;2023-04-08T15:07:07;3.88;;;2.78;;
55372;SDS011;41249;47.838;16.490;2023-04-08T15:09:34;5.15;;;3.47;;